Time;durP1;ratioP1;P1;durP2;ratioP2;P2;SDS_P1;SDS_P2;PMS_P1;PMS_P2;Temp;Humidity;BMP_temperature;BMP_pressure;BME280_temperature;BME280_humidity;BME280_pressure;Samples;Min_cycle;Max_cycle;Signal;HPM_P1;HPM_P2
2023/04/06 00:01:49;;;;;;;7.90;2.90;;;3.90;89.40;;;;;;5082200;28;20387;-68
2023/04/06 00:04:27;;;;;;;6.15;3.22;;;3.80;89.40;;;;;;5052443;28;20499;-72
2023/04/06 00:06:52;;;;;;;4.87;3.20;;;3.80;89.90;;;;;;5037480;28;20047;-72
2023/04/06 00:09:18;;;;;;;6.43;3.80;;;3.80;90.10;;;;;;5044965;28;20061;-72
2023/04/06 00:11:43;;;;;;;6.27;3.60;;;3.80;90.10;;;;;;5059263;28;20048;-72
2023/04/06 00:14:09;;;;;;;5.67;3.23;;;3.70;90.30;;;;;;5043258;28;20068;-72
2023/04/06 00:16:35;;;;;;;10.50;3.73;;;3.70;90.40;;;;;;5037146;28;20467;-72
2023/04/06 00:19:01;;;;;;;8.45;3.70;;;3.70;90.70;;;;;;5058827;28;20107;-72
2023/04/06 00:21:26;;;;;;;7.13;3.90;;;3.70;90.80;;;;;;5057310;28;20116;-72
2023/04/06 00:23:52;;;;;;;5.73;3.30;;;3.70;91.10;;;;;;5040646;28;20398;-72
2023/04/06 00:26:18;;;;;;;7.87;3.97;;;3.60;91.10;;;;;;5030359;28;20037;-72
2023/04/06 00:28:46;;;;;;;5.10;3.13;;;3.60;91.30;;;;;;5036957;28;20118;-72
2023/04/06 00:31:12;;;;;;;5.10;3.20;;;3.60;91.30;;;;;;5043792;28;20484;-70
2023/04/06 00:33:37;;;;;;;5.70;3.50;;;3.60;91.50;;;;;;5038093;28;20072;-71
2023/04/06 00:36:03;;;;;;;6.03;2.93;;;3.60;91.70;;;;;;5050177;28;20103;-70
2023/04/06 00:38:29;;;;;;;7.87;3.30;;;3.50;91.90;;;;;;5035629;28;20048;-70
2023/04/06 00:40:54;;;;;;;6.03;3.23;;;3.50;92.10;;;;;;5044169;28;20047;-71
2023/04/06 00:43:20;;;;;;;7.80;3.17;;;3.50;92.00;;;;;;5050569;28;20040;-71
2023/04/06 00:45:46;;;;;;;5.27;3.30;;;3.50;92.10;;;;;;5039666;28;20041;-71
2023/04/06 00:48:11;;;;;;;6.47;3.47;;;3.50;92.30;;;;;;5040059;28;20049;-70
2023/04/06 00:50:37;;;;;;;7.00;4.07;;;3.40;92.40;;;;;;5038641;28;20041;-71
2023/04/06 00:53:02;;;;;;;8.13;3.53;;;3.40;92.70;;;;;;5027164;28;20055;-71
2023/04/06 00:55:29;;;;;;;4.73;3.30;;;3.40;92.70;;;;;;5042522;28;20176;-71
2023/04/06 00:57:56;;;;;;;7.85;3.28;;;3.40;93.10;;;;;;5056792;28;20246;-70
2023/04/06 01:00:22;;;;;;;7.53;3.33;;;3.40;93.20;;;;;;5041097;28;20209;-70
2023/04/06 01:02:48;;;;;;;6.30;3.53;;;3.40;93.30;;;;;;5038252;28;20094;-71
2023/04/06 01:05:13;;;;;;;7.07;3.77;;;3.30;93.40;;;;;;5041910;28;20040;-72
2023/04/06 01:07:39;;;;;;;7.90;3.23;;;3.30;93.90;;;;;;5044445;28;20090;-71
2023/04/06 01:10:05;;;;;;;4.97;3.47;;;3.30;94.10;;;;;;5054728;28;20405;-70
2023/04/06 01:12:31;;;;;;;6.10;2.92;;;3.20;94.00;;;;;;5045017;28;20044;-71
2023/04/06 01:14:57;;;;;;;10.57;3.80;;;3.30;94.10;;;;;;5043629;28;20487;-71
2023/04/06 01:17:22;;;;;;;5.07;3.17;;;3.30;94.60;;;;;;5048868;28;20037;-71
2023/04/06 01:19:53;;;;;;;6.07;3.27;;;3.30;94.70;;;;;;5042460;28;20040;-71
2023/04/06 01:22:19;;;;;;;6.43;3.72;;;3.20;95.00;;;;;;5061041;28;20044;-71
2023/04/06 01:24:45;;;;;;;6.87;3.33;;;3.20;95.10;;;;;;5035473;28;20033;-72
2023/04/06 01:27:10;;;;;;;5.83;3.33;;;3.20;95.30;;;;;;5023864;28;20091;-74
2023/04/06 01:29:36;;;;;;;7.32;3.75;;;3.20;95.40;;;;;;5034728;28;20068;-69
2023/04/06 01:32:02;;;;;;;8.80;3.67;;;3.10;95.70;;;;;;5034168;28;20048;-70
2023/04/06 01:34:28;;;;;;;6.77;3.57;;;3.10;95.70;;;;;;5051643;28;20039;-72
2023/04/06 01:36:53;;;;;;;6.73;3.60;;;3.10;96.00;;;;;;5032067;28;20375;-70
2023/04/06 01:39:22;;;;;;;6.63;3.83;;;3.10;96.00;;;;;;5039607;28;20037;-70
2023/04/06 01:41:48;;;;;;;6.07;3.72;;;3.10;96.30;;;;;;5028619;28;20037;-71
2023/04/06 01:44:18;;;;;;;7.83;3.47;;;3.10;96.30;;;;;;5050301;28;21381;-70
2023/04/06 01:46:43;;;;;;;5.82;3.40;;;3.10;96.50;;;;;;5034554;28;20075;-73
2023/04/06 01:49:09;;;;;;;4.00;2.77;;;3.00;96.70;;;;;;5039722;28;20448;-73
2023/04/06 01:51:35;;;;;;;6.47;3.47;;;3.00;97.00;;;;;;5051333;28;20268;-71
2023/04/06 01:54:00;;;;;;;4.50;2.87;;;2.90;97.20;;;;;;5039241;28;20028;-72
2023/04/06 01:56:26;;;;;;;7.27;3.47;;;2.90;97.50;;;;;;5030245;28;20504;-72
2023/04/06 01:58:52;;;;;;;6.70;3.40;;;2.90;97.60;;;;;;5027593;28;20353;-71
2023/04/06 02:01:17;;;;;;;7.13;3.67;;;2.90;97.60;;;;;;5035005;28;20143;-71
2023/04/06 02:03:43;;;;;;;6.17;3.50;;;2.80;97.60;;;;;;5053899;28;20047;-72
2023/04/06 02:06:08;;;;;;;6.20;3.00;;;2.80;97.70;;;;;;5039393;28;20037;-71
2023/04/06 02:08:34;;;;;;;6.93;3.13;;;2.80;97.90;;;;;;5037389;28;20049;-71
2023/04/06 02:10:59;;;;;;;13.00;3.73;;;2.80;98.10;;;;;;5036677;28;20055;-71
2023/04/06 02:13:25;;;;;;;5.87;3.43;;;2.80;98.00;;;;;;5038207;28;20159;-71
2023/04/06 02:15:51;;;;;;;7.93;3.27;;;2.80;98.20;;;;;;5033958;28;20076;-72
2023/04/06 02:18:18;;;;;;;6.27;3.07;;;2.80;98.20;;;;;;5031850;28;20307;-71
2023/04/06 02:20:44;;;;;;;5.80;3.88;;;2.70;98.50;;;;;;5050286;28;20047;-71
2023/04/06 02:23:09;;;;;;;5.20;3.45;;;2.70;98.50;;;;;;5025328;28;20040;-71
2023/04/06 02:25:37;;;;;;;5.17;3.07;;;2.70;98.80;;;;;;5045606;28;20446;-71
2023/04/06 02:28:03;;;;;;;5.97;3.13;;;2.70;98.70;;;;;;5037421;28;20045;-72
2023/04/06 02:30:29;;;;;;;7.07;3.80;;;2.70;98.90;;;;;;5022953;28;20047;-71
2023/04/06 02:32:55;;;;;;;14.77;3.73;;;2.60;98.90;;;;;;5058523;28;20414;-71
2023/04/06 02:35:21;;;;;;;8.68;4.15;;;2.60;99.20;;;;;;5041316;28;20047;-71
2023/04/06 02:37:46;;;;;;;6.87;3.70;;;2.60;99.20;;;;;;5048310;28;20049;-71
2023/04/06 02:40:13;;;;;;;6.13;3.27;;;2.60;99.30;;;;;;5030098;28;20044;-71
2023/04/06 02:42:39;;;;;;;5.93;3.20;;;2.60;99.60;;;;;;5044751;28;20094;-71
2023/04/06 02:45:05;;;;;;;5.93;3.20;;;2.60;99.70;;;;;;5044228;28;20447;-72
2023/04/06 02:47:30;;;;;;;5.88;3.03;;;2.60;99.80;;;;;;5028020;28;20066;-72
2023/04/06 02:49:56;;;;;;;6.57;3.23;;;2.60;99.80;;;;;;5052678;28;20413;-72
2023/04/06 02:52:22;;;;;;;5.40;3.30;;;2.50;99.80;;;;;;5042400;28;20074;-72
2023/04/06 02:54:47;;;;;;;7.40;3.53;;;2.50;99.90;;;;;;5050036;28;20040;-71
2023/04/06 02:57:13;;;;;;;5.40;3.33;;;2.50;99.90;;;;;;5034237;28;20045;-72
2023/04/06 02:59:38;;;;;;;6.43;3.70;;;2.50;99.90;;;;;;5049113;28;20075;-71
2023/04/06 03:02:04;;;;;;;7.63;3.90;;;2.50;99.90;;;;;;5037769;28;20132;-72
2023/04/06 03:04:30;;;;;;;7.47;3.43;;;2.50;99.90;;;;;;5046405;28;20468;-71
2023/04/06 03:06:55;;;;;;;9.53;4.33;;;2.50;99.90;;;;;;5025929;28;20572;-72
2023/04/06 03:09:21;;;;;;;8.07;3.63;;;2.40;99.90;;;;;;5056328;28;20037;-72
2023/04/06 03:11:47;;;;;;;6.43;3.47;;;2.40;99.90;;;;;;5044912;28;20109;-71
2023/04/06 03:14:13;;;;;;;6.57;3.60;;;2.40;99.90;;;;;;5037017;28;20044;-71
2023/04/06 03:16:38;;;;;;;5.77;3.50;;;2.40;99.90;;;;;;5039497;28;20044;-72
2023/04/06 03:19:04;;;;;;;6.13;4.03;;;2.40;99.90;;;;;;5047089;28;20037;-72
2023/04/06 03:21:30;;;;;;;6.85;3.83;;;2.40;99.90;;;;;;5037591;28;20433;-71
2023/04/06 03:23:55;;;;;;;11.43;3.63;;;2.30;99.90;;;;;;5037153;28;20045;-71
2023/04/06 03:26:22;;;;;;;7.77;3.43;;;2.30;99.90;;;;;;5038621;28;20045;-72
2023/04/06 03:28:47;;;;;;;9.05;4.25;;;2.30;99.90;;;;;;5056541;28;20045;-71
2023/04/06 03:31:13;;;;;;;5.97;3.37;;;2.30;99.90;;;;;;5056857;28;20052;-71
2023/04/06 03:33:39;;;;;;;11.20;3.30;;;2.30;99.90;;;;;;5040265;28;20051;-73
2023/04/06 03:36:05;;;;;;;5.37;3.23;;;2.30;99.90;;;;;;5052214;28;20045;-72
2023/04/06 03:38:30;;;;;;;6.20;3.25;;;2.30;99.90;;;;;;5036486;28;20049;-71
2023/04/06 03:40:56;;;;;;;7.00;3.57;;;2.20;99.90;;;;;;5048908;28;20118;-71
2023/04/06 03:43:24;;;;;;;6.97;3.20;;;2.20;99.90;;;;;;5056967;28;20052;-71
2023/04/06 03:45:51;;;;;;;6.80;3.55;;;2.20;99.90;;;;;;5044596;28;20044;-72
2023/04/06 03:48:17;;;;;;;6.95;3.50;;;2.20;99.90;;;;;;5057872;28;20044;-72
2023/04/06 03:50:43;;;;;;;5.13;3.47;;;2.20;99.90;;;;;;5053196;28;20066;-71
2023/04/06 03:53:08;;;;;;;8.30;4.17;;;2.10;99.90;;;;;;5046412;28;20037;-71
2023/04/06 03:55:34;;;;;;;6.50;3.87;;;2.10;99.90;;;;;;5027605;28;20474;-72
2023/04/06 03:57:59;;;;;;;6.93;4.27;;;2.10;99.90;;;;;;5047597;28;20143;-72
2023/04/06 04:00:25;;;;;;;7.83;3.90;;;2.10;99.90;;;;;;5025240;28;20082;-71
2023/04/06 04:02:50;;;;;;;9.07;4.60;;;2.10;99.90;;;;;;5045234;28;20456;-71
2023/04/06 04:05:16;;;;;;;5.93;3.33;;;2.00;99.90;;;;;;5038640;28;20037;-72
2023/04/06 04:07:42;;;;;;;6.40;3.70;;;2.00;99.90;;;;;;5038775;28;20601;-71
2023/04/06 04:10:08;;;;;;;6.73;3.90;;;2.00;99.90;;;;;;5044587;28;20033;-72
2023/04/06 04:12:33;;;;;;;8.85;3.60;;;2.00;99.90;;;;;;5044454;28;20094;-71
2023/04/06 04:14:59;;;;;;;6.43;3.73;;;2.00;99.90;;;;;;5033805;28;20297;-71
2023/04/06 04:17:25;;;;;;;7.27;4.03;;;2.00;99.90;;;;;;5021377;28;20052;-72
2023/04/06 04:19:50;;;;;;;7.20;3.60;;;2.00;99.90;;;;;;5066038;28;20405;-71
2023/04/06 04:22:16;;;;;;;7.10;4.33;;;1.90;99.90;;;;;;5036196;28;20036;-72
2023/04/06 04:24:42;;;;;;;7.57;4.63;;;2.00;99.90;;;;;;5030765;28;20048;-72
2023/04/06 04:27:07;;;;;;;6.73;4.27;;;1.90;99.90;;;;;;5051235;28;20120;-71
2023/04/06 04:29:36;;;;;;;7.23;3.83;;;1.90;99.90;;;;;;5032927;28;20056;-71
2023/04/06 04:32:01;;;;;;;7.20;4.47;;;1.90;99.90;;;;;;5047373;28;20044;-71
2023/04/06 04:34:27;;;;;;;7.47;4.13;;;1.90;99.90;;;;;;5040459;28;20059;-71
2023/04/06 04:36:53;;;;;;;10.60;4.28;;;1.90;99.90;;;;;;5055625;28;20114;-71
2023/04/06 04:39:22;;;;;;;8.65;4.75;;;1.90;99.90;;;;;;5040547;28;20040;-71
2023/04/06 04:41:49;;;;;;;10.10;4.87;;;1.90;99.90;;;;;;5029291;28;20044;-72
2023/04/06 04:44:15;;;;;;;7.18;4.03;;;1.90;99.90;;;;;;5038742;28;20100;-71
2023/04/06 04:46:41;;;;;;;7.33;4.03;;;1.80;99.90;;;;;;5045296;28;20044;-71
2023/04/06 04:49:06;;;;;;;6.37;4.10;;;1.90;99.90;;;;;;5046173;28;20591;-72
2023/04/06 04:51:33;;;;;;;8.87;4.00;;;1.80;99.90;;;;;;5046386;28;20290;-71
2023/04/06 04:53:59;;;;;;;;;;;1.80;99.90;;;;;;5044309;28;20037;-71
2023/04/06 04:56:33;;;;;;;7.18;4.15;;;1.80;99.90;;;;;;5036578;28;20360;-73
2023/04/06 04:58:59;;;;;;;7.32;4.25;;;1.80;99.90;;;;;;5038435;28;20397;-72
2023/04/06 05:01:24;;;;;;;8.83;4.30;;;1.80;99.90;;;;;;5041671;28;20139;-71
2023/04/06 05:03:52;;;;;;;7.93;4.40;;;1.80;99.90;;;;;;5035237;28;20040;-71
2023/04/06 05:06:19;;;;;;;8.75;5.00;;;1.80;99.90;;;;;;5039202;28;20053;-71
2023/04/06 05:08:44;;;;;;;8.93;4.85;;;1.80;99.90;;;;;;5037222;28;20072;-71
2023/04/06 05:11:10;;;;;;;9.40;4.53;;;1.80;99.90;;;;;;5047064;28;20514;-71
2023/04/06 05:13:36;;;;;;;8.43;4.93;;;1.80;99.90;;;;;;5038762;28;20471;-72
2023/04/06 05:16:01;;;;;;;8.57;4.47;;;1.80;99.90;;;;;;5063774;28;20291;-71
2023/04/06 05:18:27;;;;;;;7.90;4.53;;;1.80;99.90;;;;;;5036026;28;20048;-70
2023/04/06 05:20:53;;;;;;;10.83;5.03;;;1.80;99.90;;;;;;5029813;28;20055;-71
2023/04/06 05:23:19;;;;;;;7.97;4.80;;;1.80;99.90;;;;;;5059576;28;20700;-71
2023/04/06 05:25:47;;;;;;;8.27;4.73;;;1.80;99.90;;;;;;5039051;28;20686;-72
2023/04/06 05:28:15;;;;;;;8.25;5.03;;;1.80;99.90;;;;;;5034620;28;20033;-71
2023/04/06 05:30:41;;;;;;;8.57;4.63;;;1.80;99.90;;;;;;5046796;28;20132;-71
2023/04/06 05:33:07;;;;;;;10.90;4.85;;;1.90;99.90;;;;;;5044985;28;20411;-72
2023/04/06 05:35:32;;;;;;;12.67;5.90;;;1.90;99.90;;;;;;5040798;28;20124;-71
2023/04/06 05:37:58;;;;;;;7.40;4.40;;;1.90;99.90;;;;;;5030789;28;20382;-71
2023/04/06 05:40:24;;;;;;;9.10;5.27;;;1.90;99.90;;;;;;5052699;28;20040;-72
2023/04/06 05:42:50;;;;;;;8.27;5.18;;;1.90;99.90;;;;;;5035674;28;20045;-73
2023/04/06 05:45:19;;;;;;;8.80;4.50;;;2.00;99.90;;;;;;5030460;28;20103;-72
2023/04/06 05:47:45;;;;;;;8.82;5.22;;;2.00;99.90;;;;;;5041356;28;20850;-73
2023/04/06 05:50:11;;;;;;;11.15;4.78;;;2.00;99.90;;;;;;5049883;28;20048;-73
2023/04/06 05:52:37;;;;;;;10.02;5.03;;;2.00;99.90;;;;;;5046593;28;20267;-74
2023/04/06 05:55:03;;;;;;;8.17;4.83;;;2.10;99.90;;;;;;5051614;28;20511;-72
2023/04/06 05:57:29;;;;;;;8.45;4.75;;;2.10;99.90;;;;;;5043129;28;21348;-73
2023/04/06 05:59:55;;;;;;;9.53;4.70;;;2.10;99.90;;;;;;5039732;28;20101;-72
2023/04/06 06:02:21;;;;;;;9.77;4.90;;;2.20;99.90;;;;;;5057049;22;20024;-69
2023/04/06 06:04:47;;;;;;;8.00;4.85;;;2.20;99.90;;;;;;5030610;28;20119;-74
2023/04/06 06:07:14;;;;;;;10.50;5.15;;;2.30;99.90;;;;;;5017282;28;20570;-69
2023/04/06 06:09:40;;;;;;;8.50;4.80;;;2.30;99.90;;;;;;5028184;28;20083;-69
2023/04/06 06:12:06;;;;;;;10.33;5.57;;;2.30;99.90;;;;;;5010035;28;20053;-69
2023/04/06 06:14:32;;;;;;;12.30;6.45;;;2.40;99.90;;;;;;5031834;28;20041;-70
2023/04/06 06:16:58;;;;;;;10.13;4.90;;;2.50;99.90;;;;;;5036953;28;20404;-68
2023/04/06 06:19:23;;;;;;;10.50;5.07;;;2.60;99.90;;;;;;5039654;28;20037;-69
2023/04/06 06:21:49;;;;;;;7.80;4.93;;;2.60;99.90;;;;;;5019108;28;20045;-69
2023/04/06 06:24:15;;;;;;;11.93;5.60;;;2.70;99.90;;;;;;5023911;28;20049;-69
2023/04/06 06:26:40;;;;;;;8.57;5.23;;;2.80;99.90;;;;;;5035777;28;20091;-69
2023/04/06 06:29:07;;;;;;;10.07;5.80;;;2.90;99.90;;;;;;5027570;28;20557;-72
2023/04/06 06:31:32;;;;;;;9.65;5.72;;;2.90;99.90;;;;;;5001742;28;20045;-69
2023/04/06 06:33:58;;;;;;;8.93;4.37;;;3.00;99.90;;;;;;5038212;28;20099;-69
2023/04/06 06:36:25;;;;;;;11.40;5.00;;;3.00;99.90;;;;;;5023601;28;20129;-69
2023/04/06 06:38:51;;;;;;;10.80;5.20;;;3.00;99.90;;;;;;5025547;28;20402;-69
2023/04/06 06:41:19;;;;;;;9.00;4.80;;;3.10;99.90;;;;;;5032444;28;20109;-69
2023/04/06 06:43:50;;;;;;;13.43;5.15;;;3.20;99.90;;;;;;5045785;28;20081;-69
2023/04/06 06:46:15;;;;;;;9.60;5.68;;;3.20;99.90;;;;;;5018409;28;20152;-69
2023/04/06 06:48:41;;;;;;;9.50;5.60;;;3.20;99.90;;;;;;5038743;28;20084;-69
2023/04/06 06:51:06;;;;;;;11.97;5.90;;;3.30;99.90;;;;;;5033301;28;20079;-69
2023/04/06 06:53:32;;;;;;;8.70;4.97;;;3.40;99.90;;;;;;5028398;28;21475;-69
2023/04/06 06:55:58;;;;;;;11.17;5.67;;;3.50;99.90;;;;;;5032664;28;20380;-69
2023/04/06 06:58:23;;;;;;;10.07;5.53;;;3.60;99.90;;;;;;5002099;28;20041;-69
2023/04/06 07:00:49;;;;;;;10.77;5.73;;;3.70;99.90;;;;;;5034956;28;20045;-69
2023/04/06 07:03:15;;;;;;;9.80;5.03;;;3.90;99.90;;;;;;5046870;28;20117;-69
2023/04/06 07:05:52;;;;;;;12.63;5.97;;;3.90;99.90;;;;;;5047203;28;20102;-69
2023/04/06 07:08:18;;;;;;;11.55;5.72;;;4.00;99.90;;;;;;5029312;28;20045;-69
2023/04/06 07:10:44;;;;;;;9.05;5.22;;;4.10;99.90;;;;;;5045934;28;20383;-69
2023/04/06 07:13:09;;;;;;;11.07;5.87;;;4.10;99.90;;;;;;5029457;28;20101;-69
2023/04/06 07:15:35;;;;;;;10.07;5.33;;;4.20;99.90;;;;;;5035392;28;20041;-69
2023/04/06 07:18:00;;;;;;;14.43;6.40;;;4.30;99.90;;;;;;5041096;28;20048;-69
2023/04/06 07:20:27;;;;;;;11.73;5.70;;;4.50;99.90;;;;;;5040617;28;20037;-69
2023/04/06 07:22:53;;;;;;;12.10;6.50;;;4.60;99.90;;;;;;5053274;28;20048;-69
2023/04/06 07:25:19;;;;;;;12.77;5.88;;;4.70;99.90;;;;;;5032885;28;20051;-69
2023/04/06 07:27:45;;;;;;;10.77;5.40;;;4.90;99.90;;;;;;5041156;28;20382;-69
2023/04/06 07:30:11;;;;;;;13.38;6.00;;;5.00;99.90;;;;;;5022282;28;20048;-69
2023/04/06 07:32:36;;;;;;;11.23;5.53;;;5.20;99.90;;;;;;5043956;28;20037;-69
2023/04/06 07:35:03;;;;;;;9.77;5.50;;;5.40;99.90;;;;;;5046643;28;20136;-69
2023/04/06 07:37:28;;;;;;;10.25;5.53;;;5.50;99.90;;;;;;5048069;28;20132;-69
2023/04/06 07:39:54;;;;;;;10.47;5.63;;;5.70;99.90;;;;;;5030682;28;20218;-69
2023/04/06 07:42:20;;;;;;;10.87;5.00;;;5.90;99.90;;;;;;5040780;28;20533;-69
2023/04/06 07:44:45;;;;;;;10.87;5.77;;;6.10;99.90;;;;;;5039832;28;20090;-69
2023/04/06 07:47:11;;;;;;;11.10;5.10;;;6.30;99.90;;;;;;5030478;28;20136;-69
2023/04/06 07:49:37;;;;;;;10.33;5.93;;;6.50;99.90;;;;;;5044394;28;20037;-69
2023/04/06 07:52:03;;;;;;;9.27;5.60;;;6.70;99.90;;;;;;5017111;28;20071;-69
2023/04/06 07:54:28;;;;;;;11.00;5.50;;;6.80;99.90;;;;;;5013927;28;20056;-69
2023/04/06 07:56:54;;;;;;;9.83;5.97;;;7.00;99.90;;;;;;5024831;28;20049;-69
2023/04/06 07:59:20;;;;;;;10.67;5.43;;;7.20;99.90;;;;;;5027214;28;20053;-69
2023/04/06 08:01:45;;;;;;;11.63;5.07;;;7.40;99.90;;;;;;5046813;28;20041;-69
2023/04/06 08:04:11;;;;;;;8.13;5.33;;;7.60;99.90;;;;;;5022098;28;20072;-69
2023/04/06 08:06:37;;;;;;;11.43;5.47;;;7.60;99.90;;;;;;5020243;28;20083;-69
2023/04/06 08:09:03;;;;;;;11.90;6.10;;;7.80;99.90;;;;;;5023517;28;20091;-69
2023/04/06 08:11:29;;;;;;;11.50;6.15;;;7.80;99.90;;;;;;5047958;28;20451;-69
2023/04/06 08:13:56;;;;;;;12.38;5.57;;;7.90;99.90;;;;;;5029989;28;20339;-69
2023/04/06 08:16:22;;;;;;;10.82;5.20;;;8.00;99.90;;;;;;5021325;28;20459;-69
2023/04/06 08:18:47;;;;;;;11.17;5.20;;;8.00;99.80;;;;;;5028118;28;20124;-69
2023/04/06 08:21:13;;;;;;;10.53;5.10;;;8.10;99.90;;;;;;5040069;28;20494;-75
2023/04/06 08:23:39;;;;;;;11.60;5.93;;;8.10;99.90;;;;;;5003675;28;20039;-75
2023/04/06 08:26:05;;;;;;;13.93;5.40;;;8.30;99.50;;;;;;5030129;28;20405;-72
2023/04/06 08:28:30;;;;;;;10.60;5.82;;;8.30;99.00;;;;;;5031751;28;20056;-73
2023/04/06 08:30:56;;;;;;;12.90;5.93;;;8.30;98.80;;;;;;5018734;28;20084;-74
2023/04/06 08:33:21;;;;;;;9.50;5.00;;;8.40;98.50;;;;;;5026195;28;20565;-75
2023/04/06 08:35:47;;;;;;;11.97;6.03;;;8.50;98.20;;;;;;5020205;28;20460;-71
2023/04/06 08:38:13;;;;;;;11.77;5.70;;;8.60;98.20;;;;;;5036704;28;20478;-79
2023/04/06 08:40:39;;;;;;;11.27;5.77;;;8.70;97.90;;;;;;5015411;28;20098;-73
2023/04/06 08:43:11;;;;;;;;;;;9.10;97.60;;;;;;5033721;28;20069;-73
2023/04/06 08:45:38;;;;;;;11.50;5.88;;;9.20;95.30;;;;;;5026636;28;19916;-73
2023/04/06 08:48:06;;;;;;;9.55;5.65;;;9.50;95.80;;;;;;5024825;28;20067;-73
2023/04/06 08:50:33;;;;;;;11.13;5.93;;;9.60;95.30;;;;;;5024165;28;20130;-72
2023/04/06 08:53:00;;;;;;;12.68;6.30;;;9.70;93.50;;;;;;5023585;28;20049;-70
2023/04/06 08:55:27;;;;;;;16.08;7.38;;;9.80;93.10;;;;;;5023343;28;20285;-71
2023/04/06 08:57:54;;;;;;;15.73;7.30;;;9.80;93.00;;;;;;5011310;28;20624;-70
2023/04/06 09:00:20;;;;;;;13.88;6.68;;;9.90;92.20;;;;;;5006999;28;20072;-72
2023/04/06 09:02:47;;;;;;;14.33;6.77;;;9.80;91.90;;;;;;5033199;28;20092;-70
2023/04/06 09:05:12;;;;;;;;;;;9.90;91.50;;;;;;5034777;28;20458;-70
2023/04/06 09:07:38;;;;;;;13.13;7.07;;;9.90;90.00;;;;;;5007863;28;19968;-70
2023/04/06 09:10:05;;;;;;;15.93;6.78;;;10.00;91.10;;;;;;5018070;28;20190;-70
2023/04/06 09:12:32;;;;;;;15.73;7.43;;;10.00;90.70;;;;;;5028528;28;20041;-71
2023/04/06 09:14:58;;;;;;;13.40;7.20;;;10.10;90.80;;;;;;5033880;28;20341;-70
2023/04/06 09:17:25;;;;;;;;;;;10.20;90.60;;;;;;5014759;28;20071;-70
2023/04/06 09:19:51;;;;;;;14.57;7.28;;;10.20;88.80;;;;;;5034079;28;20016;-70
2023/04/06 09:22:18;;;;;;;14.45;7.05;;;10.30;89.80;;;;;;5022804;28;20515;-70
2023/04/06 09:24:45;;;;;;;12.82;7.60;;;10.40;90.30;;;;;;5035152;28;20045;-71
2023/04/06 09:27:11;;;;;;;17.90;7.13;;;10.40;90.20;;;;;;5023824;28;20041;-70
2023/04/06 09:29:37;;;;;;;17.45;8.13;;;10.50;89.30;;;;;;5000884;28;20294;-69
2023/04/06 09:32:04;;;;;;;17.23;8.10;;;10.70;89.20;;;;;;5007962;28;20075;-70
2023/04/06 09:34:30;;;;;;;16.27;7.93;;;10.80;88.50;;;;;;5030564;28;20080;-70
2023/04/06 09:36:56;;;;;;;17.33;8.50;;;10.90;87.00;;;;;;5035968;28;20501;-70
2023/04/06 09:39:25;;;;;;;16.07;7.80;;;11.10;87.40;;;;;;5031270;28;20037;-71
2023/04/06 09:41:53;;;;;;;16.55;8.30;;;11.20;86.80;;;;;;4994807;28;20049;-68
2023/04/06 09:44:20;;;;;;;14.43;8.43;;;11.40;85.30;;;;;;5015812;28;20041;-68
2023/04/06 09:46:46;;;;;;;15.38;8.60;;;11.40;83.60;;;;;;5014393;28;20041;-71
2023/04/06 09:49:13;;;;;;;19.48;8.10;;;11.50;83.30;;;;;;5010226;28;20044;-68
2023/04/06 09:51:59;;;;;;;17.25;8.80;;;11.50;82.90;;;;;;5037074;28;20041;-65
2023/04/06 09:54:29;;;;;;;15.13;8.20;;;11.60;82.60;;;;;;5039682;28;20127;-65
2023/04/06 09:57:18;;;;;;;16.08;8.05;;;11.70;80.20;;;;;;5023766;28;20041;-66
2023/04/06 09:59:47;;;;;;;14.90;8.60;;;11.70;79.10;;;;;;5037826;28;20112;-66
2023/04/06 10:02:50;;;;;;;18.50;9.10;;;11.80;80.90;;;;;;5027249;28;20113;-66
2023/04/06 10:05:15;;;;;;;16.50;9.48;;;12.10;81.30;;;;;;5017582;28;20044;-66
2023/04/06 10:07:42;;;;;;;15.77;8.87;;;12.30;81.50;;;;;;5037551;28;20045;-66
2023/04/06 10:10:09;;;;;;;23.17;9.77;;;12.40;80.10;;;;;;5019735;28;20045;-66
2023/04/06 10:12:37;;;;;;;19.38;8.63;;;12.60;79.20;;;;;;5032074;28;20041;-66
2023/04/06 10:15:03;;;;;;;17.45;9.60;;;12.80;78.50;;;;;;5042203;28;20520;-67
2023/04/06 10:17:29;;;;;;;16.88;8.63;;;12.80;76.80;;;;;;5039227;28;20083;-67
2023/04/06 10:20:17;;;;;;;16.23;9.60;;;12.90;75.90;;;;;;5019909;28;20049;-66
2023/04/06 10:22:53;;;;;;;16.92;9.23;;;12.90;74.80;;;;;;5019439;28;20046;-67
2023/04/06 10:25:32;;;;;;;18.77;9.95;;;12.90;74.30;;;;;;5020883;28;20128;-67
2023/04/06 10:28:11;;;;;;;19.00;10.10;;;12.90;72.00;;;;;;5017316;28;20080;-67
2023/04/06 10:30:45;;;;;;;17.67;9.60;;;13.00;73.40;;;;;;5040165;28;20044;-67
2023/04/06 10:33:18;;;;;;;19.60;10.25;;;13.00;73.00;;;;;;5037769;28;20063;-67
2023/04/06 10:35:45;;;;;;;18.05;9.40;;;13.10;71.30;;;;;;5038167;28;20045;-67
2023/04/06 10:38:14;;;;;;;22.10;9.95;;;13.10;72.20;;;;;;5043236;28;20078;-67
2023/04/06 10:40:42;;;;;;;20.80;10.93;;;13.10;72.00;;;;;;5011655;28;20102;-67
2023/04/06 10:43:20;;;;;;;20.88;10.55;;;13.10;71.30;;;;;;5031454;28;20277;-67
2023/04/06 10:45:55;;;;;;;20.30;10.27;;;13.20;72.10;;;;;;5024619;28;20045;-67
2023/04/06 10:48:21;;;;;;;17.85;10.23;;;13.10;69.60;;;;;;5017304;28;20045;-67
2023/04/06 10:50:49;;;;;;;20.10;10.32;;;13.10;70.30;;;;;;5030676;28;20565;-67
2023/04/06 10:53:25;;;;;;;20.73;10.18;;;13.10;70.20;;;;;;5042764;28;20132;-68
2023/04/06 10:55:52;;;;;;;19.88;10.93;;;13.10;69.20;;;;;;5041817;28;20069;-68
2023/04/06 10:58:19;;;;;;;19.02;10.25;;;13.10;69.40;;;;;;5007231;28;20053;-67
2023/04/06 11:00:46;;;;;;;25.83;10.98;;;13.00;68.80;;;;;;5021779;28;20128;-68
2023/04/06 11:03:12;;;;;;;21.98;10.48;;;12.90;68.70;;;;;;5025885;28;20077;-68
2023/04/06 11:05:37;;;;;;;21.25;10.50;;;12.90;68.90;;;;;;5040616;28;20033;-68
2023/04/06 11:08:03;;;;;;;19.77;10.27;;;12.90;68.50;;;;;;5026525;28;20521;-68
2023/04/06 11:10:30;;;;;;;19.73;10.23;;;12.80;69.10;;;;;;5029057;28;20045;-68
2023/04/06 11:12:56;;;;;;;19.20;10.38;;;12.80;69.40;;;;;;5016491;28;20045;-67
2023/04/06 11:15:22;;;;;;;;;;;12.90;68.50;;;;;;5044507;28;20056;-67
2023/04/06 11:17:49;;;;;;;23.77;10.60;;;12.90;68.80;;;;;;5024511;28;19925;-68
2023/04/06 11:20:15;;;;;;;21.58;10.25;;;13.00;69.00;;;;;;5041247;28;20037;-68
2023/04/06 11:22:51;;;;;;;19.45;10.07;;;13.00;68.60;;;;;;5031437;28;20348;-68
2023/04/06 11:25:17;;;;;;;19.67;11.20;;;13.10;67.40;;;;;;5037349;28;20376;-68
2023/04/06 11:27:44;;;;;;;24.13;10.90;;;13.00;67.60;;;;;;5012785;28;20056;-68
2023/04/06 11:30:10;;;;;;;23.33;11.75;;;13.00;67.60;;;;;;5030086;28;20135;-68
2023/04/06 11:32:44;;;;;;;23.38;11.52;;;13.10;67.40;;;;;;5034882;28;20095;-68
2023/04/06 11:35:23;;;;;;;21.05;10.93;;;13.00;67.20;;;;;;5026436;28;20156;-68
2023/04/06 11:37:52;;;;;;;22.02;10.50;;;13.10;68.00;;;;;;5026240;28;20367;-68
2023/04/06 11:40:22;;;;;;;26.75;11.75;;;13.20;68.60;;;;;;5023507;28;20136;-67
2023/04/06 11:42:55;;;;;;;27.90;11.93;;;13.40;68.20;;;;;;5021628;28;20050;-68
2023/04/06 11:45:21;;;;;;;24.73;11.23;;;13.60;67.40;;;;;;5042597;28;20041;-67
2023/04/06 11:47:56;;;;;;;25.38;11.95;;;13.50;67.40;;;;;;5013820;28;20502;-67
2023/04/06 11:50:22;;;;;;;21.88;11.35;;;13.60;67.70;;;;;;5015019;28;20049;-67
2023/04/06 11:52:59;;;;;;;26.30;11.90;;;13.70;67.90;;;;;;5019176;28;20056;-67
2023/04/06 11:55:25;;;;;;;20.00;10.93;;;13.70;66.70;;;;;;5036278;28;20045;-67
2023/04/06 11:57:51;;;;;;;23.92;11.52;;;13.60;66.60;;;;;;5038710;28;20712;-67
2023/04/06 12:00:17;;;;;;;22.95;10.70;;;13.70;65.80;;;;;;5028466;28;20411;-67
2023/04/06 12:02:47;;;;;;;23.60;12.18;;;13.50;65.70;;;;;;5038770;22;20065;-86
2023/04/06 12:05:18;;;;;;;22.52;10.88;;;13.50;66.00;;;;;;5014068;28;20177;-84
2023/04/06 12:08:03;;;;;;;22.60;11.73;;;13.50;66.30;;;;;;5027450;28;20055;-87
2023/04/06 12:10:29;;;;;;;25.00;11.55;;;13.40;66.10;;;;;;5026170;28;20033;-85
2023/04/06 12:12:57;;;;;;;21.13;11.52;;;13.50;66.80;;;;;;5016340;28;20052;-88
2023/04/06 12:15:23;;;;;;;21.77;10.85;;;13.70;67.00;;;;;;5026963;28;20033;-86
2023/04/06 12:17:52;;;;;;;20.60;10.90;;;13.60;66.60;;;;;;5046059;28;20045;-86
2023/04/06 12:20:21;;;;;;;24.77;11.30;;;13.70;66.70;;;;;;5032542;28;20219;-87
2023/04/06 12:22:49;;;;;;;20.83;11.10;;;13.80;66.80;;;;;;5032322;28;20049;-90
2023/04/06 12:25:18;;;;;;;20.40;10.43;;;13.90;66.80;;;;;;5016144;28;20090;-86
2023/04/06 12:27:44;;;;;;;21.95;10.23;;;13.70;66.60;;;;;;5047186;28;20579;-86
2023/04/06 12:30:10;;;;;;;20.97;10.00;;;13.70;66.50;;;;;;5045591;28;20143;-90
2023/04/06 12:32:36;;;;;;;;;;;13.70;66.80;;;;;;5025714;28;20444;-86
2023/04/06 12:35:02;;;;;;;18.15;9.80;;;13.70;67.10;;;;;;5028862;28;19923;-88
2023/04/06 12:37:30;;;;;;;20.83;10.67;;;13.70;67.50;;;;;;5011381;28;20530;-86
2023/04/06 12:39:55;;;;;;;20.65;9.85;;;13.60;67.00;;;;;;5011202;28;20405;-86
2023/04/06 12:42:24;;;;;;;23.35;10.40;;;13.70;67.50;;;;;;5009293;28;20138;-86
2023/04/06 12:44:52;;;;;;;19.13;10.10;;;13.70;67.60;;;;;;5007415;28;20385;-88
2023/04/06 12:47:22;;;;;;;20.73;10.18;;;13.70;67.80;;;;;;5045468;28;20044;-87